Time;durP1;ratioP1;P1;durP2;ratioP2;P2;SDS_P1;SDS_P2;PMS_P1;PMS_P2;Temp;Humidity;BMP_temperature;BMP_pressure;BME280_temperature;BME280_humidity;BME280_pressure;Samples;Min_cycle;Max_cycle;Signal;HPM_P1;HPM_P2
2021/11/20 00:02:31;;;;;;;2.25;1.38;;;17.50;74.10;;;;;;10579681;28;20453;-49
2021/11/20 00:07:32;;;;;;;2.92;1.05;;;17.50;74.00;;;;;;10579548;28;20028;-48
2021/11/20 00:12:33;;;;;;;1.70;1.00;;;17.50;74.00;;;;;;10561356;28;20031;-50
2021/11/20 00:17:35;;;;;;;2.85;1.40;;;17.50;74.00;;;;;;10560714;28;20108;-51
2021/11/20 00:22:39;;;;;;;2.13;1.33;;;17.50;73.90;;;;;;10572074;28;20027;-50
2021/11/20 00:27:40;;;;;;;1.42;0.77;;;17.50;73.90;;;;;;10578558;28;20042;-51
2021/11/20 00:32:52;;;;;;;4.07;0.93;;;17.50;73.90;;;;;;10543477;28;20451;-48
2021/11/20 00:37:53;;;;;;;2.03;0.90;;;17.50;73.80;;;;;;10560915;28;20023;-47
2021/11/20 00:42:54;;;;;;;2.97;1.00;;;17.50;73.90;;;;;;10578214;28;20483;-49
2021/11/20 00:47:55;;;;;;;2.35;1.10;;;17.50;73.90;;;;;;10574096;28;20107;-53
2021/11/20 00:52:55;;;;;;;1.98;1.27;;;17.50;73.90;;;;;;10567201;28;20395;-47
2021/11/20 00:57:58;;;;;;;1.70;0.80;;;17.50;73.70;;;;;;10577728;28;20435;-50
2021/11/20 01:03:00;;;;;;;1.75;1.02;;;17.50;73.60;;;;;;10577852;28;20027;-51
2021/11/20 01:08:01;;;;;;;2.75;0.93;;;17.50;73.60;;;;;;10559588;28;20049;-50
2021/11/20 01:13:03;;;;;;;2.25;0.93;;;17.60;73.60;;;;;;10559890;28;20027;-47
2021/11/20 01:18:07;;;;;;;2.25;1.00;;;17.60;73.60;;;;;;10559425;28;20026;-49
2021/11/20 01:23:08;;;;;;;1.65;0.82;;;17.50;73.60;;;;;;10577559;28;20040;-47
2021/11/20 01:28:10;;;;;;;1.45;0.90;;;17.50;73.60;;;;;;10577341;28;20023;-49
2021/11/20 01:33:11;;;;;;;2.40;0.98;;;17.50;73.60;;;;;;10577092;28;20059;-48
2021/11/20 01:38:12;;;;;;;1.50;1.00;;;17.50;73.60;;;;;;10542102;28;20047;-48
2021/11/20 01:43:13;;;;;;;1.30;0.80;;;17.50;73.60;;;;;;10577148;28;20030;-51
2021/11/20 01:48:44;;;;;;;1.65;0.75;;;17.60;73.50;;;;;;10570755;28;20024;-50
2021/11/20 01:54:34;;;;;;;2.03;0.90;;;17.50;73.30;;;;;;10574210;28;20395;-49
2021/11/20 02:00:08;;;;;;;1.95;0.75;;;17.50;73.30;;;;;;10576845;28;20097;-48
2021/11/20 02:05:41;;;;;;;2.50;0.90;;;17.60;73.10;;;;;;10559967;28;20542;-49
2021/11/20 02:10:55;;;;;;;3.13;0.82;;;17.70;72.80;;;;;;10564947;28;20055;-48
2021/11/20 02:16:06;;;;;;;1.75;1.00;;;17.70;72.80;;;;;;10566029;28;20506;-51
2021/11/20 02:21:49;;;;;;;3.08;1.13;;;17.70;72.80;;;;;;10580525;28;20034;-49
2021/11/20 02:26:50;;;;;;;1.48;0.77;;;17.70;72.90;;;;;;10556424;28;20114;-52
2021/11/20 02:32:02;;;;;;;2.08;0.90;;;17.70;73.00;;;;;;10583023;28;20134;-51
2021/11/20 02:37:03;;;;;;;2.90;0.98;;;17.60;73.10;;;;;;10565063;28;20058;-52
2021/11/20 02:42:09;;;;;;;2.33;0.90;;;17.60;73.20;;;;;;10582989;28;20024;-50
2021/11/20 02:47:33;;;;;;;2.20;1.27;;;17.50;73.20;;;;;;10564338;28;20027;-53
2021/11/20 02:52:34;;;;;;;1.02;0.60;;;17.50;73.30;;;;;;10552105;28;20436;-51
2021/11/20 02:57:40;;;;;;;1.92;0.85;;;17.50;73.30;;;;;;10564113;28;20038;-51
2021/11/20 03:02:41;;;;;;;1.75;0.82;;;17.50;73.30;;;;;;10564595;28;20467;-51
2021/11/20 03:07:42;;;;;;;1.83;0.60;;;17.50;73.30;;;;;;10563640;28;20097;-52
2021/11/20 03:12:43;;;;;;;1.75;1.00;;;17.40;73.30;;;;;;10581638;28;20024;-48
2021/11/20 03:17:43;;;;;;;2.22;1.00;;;17.50;73.30;;;;;;10581560;28;20067;-53
2021/11/20 03:23:00;;;;;;;1.48;0.70;;;17.50;73.10;;;;;;10573940;28;20074;-51
2021/11/20 03:28:00;;;;;;;1.65;0.88;;;17.60;73.60;;;;;;10564099;28;20395;-51
2021/11/20 03:33:02;;;;;;;1.25;0.75;;;17.60;73.00;;;;;;10562768;28;20047;-48
2021/11/20 03:38:03;;;;;;;1.63;0.80;;;17.60;72.80;;;;;;10580708;28;20028;-48
2021/11/20 03:43:05;;;;;;;1.85;0.98;;;17.70;72.60;;;;;;10580322;28;20502;-48
2021/11/20 03:48:08;;;;;;;1.88;0.70;;;17.70;72.60;;;;;;10556526;28;20102;-49
2021/11/20 03:53:11;;;;;;;0.90;0.60;;;17.60;72.50;;;;;;10572314;28;20034;-49
2021/11/20 03:58:14;;;;;;;1.17;0.80;;;17.60;72.60;;;;;;10579870;28;20055;-50
2021/11/20 04:03:20;;;;;;;1.33;0.80;;;17.60;72.70;;;;;;10579664;28;20028;-51
2021/11/20 04:08:22;;;;;;;1.10;0.68;;;17.60;72.90;;;;;;10579461;28;20039;-52
2021/11/20 04:13:23;;;;;;;1.52;0.70;;;17.50;72.90;;;;;;10544417;28;20031;-51
2021/11/20 04:18:24;;;;;;;1.35;0.63;;;17.50;72.90;;;;;;10579158;28;20439;-49
2021/11/20 04:23:24;;;;;;;1.90;0.80;;;17.50;73.00;;;;;;10572426;28;20157;-53
2021/11/20 04:28:25;;;;;;;0.98;0.60;;;17.50;73.00;;;;;;10560525;28;20075;-50
2021/11/20 04:33:27;;;;;;;1.35;0.80;;;17.50;73.10;;;;;;10577494;28;20483;-49
2021/11/20 04:38:27;;;;;;;1.35;0.88;;;17.50;73.00;;;;;;10577114;28;20372;-47
2021/11/20 04:43:28;;;;;;;1.63;1.15;;;17.60;72.80;;;;;;10578489;28;20152;-49
2021/11/20 04:48:29;;;;;;;3.28;0.93;;;17.60;72.60;;;;;;10569311;28;20040;-48
2021/11/20 04:53:34;;;;;;;1.67;1.00;;;17.60;72.60;;;;;;10573209;28;20020;-50
2021/11/20 04:58:36;;;;;;;2.28;0.82;;;17.60;72.50;;;;;;10559757;28;20038;-52
2021/11/20 05:03:39;;;;;;;2.65;0.80;;;17.60;72.40;;;;;;10577901;28;20063;-51
2021/11/20 05:08:40;;;;;;;1.35;0.77;;;17.60;72.40;;;;;;10577822;28;20126;-52
2021/11/20 05:13:42;;;;;;;1.70;0.73;;;17.60;72.50;;;;;;10577794;28;20036;-50
2021/11/20 05:18:44;;;;;;;1.38;0.77;;;17.60;72.60;;;;;;10577846;28;20084;-49
2021/11/20 05:23:46;;;;;;;1.00;0.65;;;17.50;73.20;;;;;;10545491;28;20024;-52
2021/11/20 05:28:54;;;;;;;1.45;0.77;;;17.50;72.70;;;;;;10556915;28;20031;-52
2021/11/20 05:33:55;;;;;;;0.95;0.52;;;17.50;72.80;;;;;;10579115;28;20067;-51
2021/11/20 05:38:59;;;;;;;1.05;0.80;;;17.50;72.70;;;;;;10555043;28;20027;-47
2021/11/20 05:44:00;;;;;;;1.52;0.90;;;17.60;72.60;;;;;;10561196;28;20034;-52
2021/11/20 05:49:01;;;;;;;1.10;0.57;;;17.70;72.00;;;;;;10584142;28;20398;-51
2021/11/20 05:54:06;;;;;;;1.08;0.68;;;17.90;71.50;;;;;;10584341;28;20028;-48
2021/11/20 05:59:06;;;;;;;1.90;0.90;;;18.10;70.90;;;;;;10563379;28;20038;-49
2021/11/20 06:04:07;;;;;;;0.80;0.70;;;18.20;70.40;;;;;;10583761;28;20390;-54
2021/11/20 06:09:08;;;;;;;1.38;0.65;;;18.30;70.30;;;;;;10576725;28;20119;-53
2021/11/20 06:14:11;;;;;;;1.52;0.90;;;18.40;70.10;;;;;;10583738;28;20024;-52
2021/11/20 06:19:12;;;;;;;1.70;0.70;;;18.40;70.00;;;;;;10582940;28;20023;-50
2021/11/20 06:24:13;;;;;;;1.83;1.05;;;18.50;69.70;;;;;;10579266;28;20027;-51
2021/11/20 06:29:15;;;;;;;5.05;1.30;;;18.50;70.00;;;;;;10582431;28;20016;-51
2021/11/20 06:34:18;;;;;;;4.10;1.63;;;18.50;70.70;;;;;;10565970;28;20643;-55
2021/11/20 06:39:18;;;;;;;2.42;1.08;;;18.60;70.20;;;;;;10584340;28;20076;-54
2021/11/20 06:44:19;;;;;;;2.13;1.33;;;18.80;69.80;;;;;;10557315;28;20083;-51
2021/11/20 06:49:21;;;;;;;2.78;1.38;;;18.90;70.40;;;;;;10565082;28;20129;-47
2021/11/20 06:54:22;;;;;;;4.60;1.10;;;18.90;70.20;;;;;;10564700;28;20055;-48
2021/11/20 07:04:28;;;;;;;4.28;1.15;;;18.90;70.50;;;;;;10565601;28;20032;-54
2021/11/20 07:09:29;;;;;;;5.00;1.40;;;18.90;70.10;;;;;;10566127;28;20034;-49
2021/11/20 07:14:30;;;;;;;5.85;1.27;;;18.80;70.40;;;;;;10582441;28;20035;-52
2021/11/20 07:19:31;;;;;;;7.07;1.65;;;18.70;70.30;;;;;;10562100;28;20446;-53
2021/11/20 07:24:31;;;;;;;7.07;1.55;;;18.80;70.40;;;;;;10581958;28;20119;-49
2021/11/20 07:29:32;;;;;;;5.90;1.60;;;18.70;70.40;;;;;;10580876;28;20099;-53
2021/11/20 07:34:33;;;;;;;7.88;2.00;;;18.60;70.70;;;;;;10579311;28;20092;-55
2021/11/20 07:39:37;;;;;;;5.97;1.65;;;18.60;70.60;;;;;;10581130;28;20038;-53
2021/11/20 07:44:38;;;;;;;5.72;1.73;;;18.70;70.80;;;;;;10581439;28;20024;-50
2021/11/20 07:49:43;;;;;;;9.32;2.53;;;18.80;70.60;;;;;;10581094;28;20107;-50
2021/11/20 07:54:43;;;;;;;8.18;1.92;;;18.80;70.40;;;;;;10562929;28;20539;-54
2021/11/20 07:59:44;;;;;;;6.88;1.83;;;18.70;70.40;;;;;;10563059;28;20024;-55
2021/11/20 08:04:45;;;;;;;11.23;3.38;;;18.60;70.70;;;;;;10581745;28;20102;-54
2021/11/20 08:09:45;;;;;;;10.35;2.72;;;18.60;70.80;;;;;;10563005;28;20035;-54
2021/11/20 08:14:46;;;;;;;17.05;3.03;;;18.50;70.90;;;;;;10580465;28;20036;-52
2021/11/20 08:19:47;;;;;;;16.08;3.65;;;18.60;71.40;;;;;;10581120;28;20031;-54
2021/11/20 08:24:48;;;;;;;18.50;4.93;;;18.40;71.50;;;;;;10562332;28;20027;-53
2021/11/20 08:29:49;;;;;;;19.02;4.45;;;18.30;71.50;;;;;;10579670;28;20063;-53
2021/11/20 08:34:51;;;;;;;14.52;4.65;;;18.30;71.80;;;;;;10579117;28;20051;-51
2021/11/20 08:39:54;;;;;;;14.57;4.13;;;18.20;72.00;;;;;;10577116;28;20031;-52
2021/11/20 08:44:55;;;;;;;10.13;3.42;;;18.20;72.10;;;;;;10559255;28;20067;-54
2021/11/20 08:49:56;;;;;;;11.13;2.95;;;18.10;72.10;;;;;;10562659;28;20113;-54
2021/11/20 08:54:57;;;;;;;10.95;3.47;;;18.10;72.90;;;;;;10542320;28;20024;-55
2021/11/20 08:59:57;;;;;;;10.70;2.90;;;18.10;72.20;;;;;;10577847;28;20027;-53
2021/11/20 09:05:00;;;;;;;7.45;2.90;;;18.20;71.90;;;;;;10579206;28;20046;-53
2021/11/20 09:10:37;;;;;;;9.27;2.67;;;18.30;71.70;;;;;;10561312;28;20024;-52
2021/11/20 09:15:57;;;;;;;6.05;1.70;;;18.40;71.30;;;;;;10560923;28;20024;-53
2021/11/20 09:20:59;;;;;;;6.50;2.47;;;18.50;70.70;;;;;;10585277;28;20042;-50
2021/11/20 09:26:00;;;;;;;6.07;2.65;;;18.50;70.60;;;;;;10527273;28;20024;-54
2021/11/20 09:31:04;;;;;;;7.55;2.97;;;18.50;70.80;;;;;;10526965;28;20032;-54
2021/11/20 09:36:06;;;;;;;9.20;3.03;;;18.50;70.80;;;;;;10544726;28;20426;-53
2021/11/20 09:41:30;;;;;;;5.35;2.45;;;18.50;70.80;;;;;;10544741;28;20034;-53
2021/11/20 09:46:44;;;;;;;8.32;2.85;;;18.50;70.70;;;;;;10526978;28;20034;-53
2021/11/20 09:51:50;;;;;;;4.22;2.00;;;18.50;70.80;;;;;;10573896;28;20072;-53
2021/11/20 09:57:00;;;;;;;8.35;2.53;;;18.40;71.00;;;;;;10548082;28;20078;-54
2021/11/20 10:02:53;;;;;;;9.30;3.50;;;18.30;70.90;;;;;;10562794;28;20024;-55
2021/11/20 10:08:09;;;;;;;9.57;3.70;;;18.40;70.30;;;;;;10560006;28;20442;-54
2021/11/20 10:13:17;;;;;;;6.82;4.30;;;18.40;70.20;;;;;;10544258;28;20422;-56
2021/11/20 10:18:31;;;;;;;11.55;5.05;;;18.40;70.20;;;;;;10525645;28;20050;-54
2021/11/20 10:23:47;;;;;;;12.57;5.03;;;18.40;69.90;;;;;;10561519;28;20115;-56
2021/11/20 10:29:28;;;;;;;13.45;4.40;;;18.50;69.80;;;;;;10564467;28;20050;-55
2021/11/20 10:34:47;;;;;;;9.30;4.55;;;18.50;70.00;;;;;;10542720;28;20055;-56
2021/11/20 10:39:57;;;;;;;16.17;6.05;;;18.60;70.60;;;;;;10547011;28;20118;-53
2021/11/20 10:45:34;;;;;;;13.25;4.97;;;18.50;70.50;;;;;;10562622;28;20032;-54
2021/11/20 10:50:47;;;;;;;17.20;5.30;;;18.50;70.80;;;;;;10580456;28;20024;-53
2021/11/20 10:56:22;;;;;;;17.85;5.15;;;18.50;71.20;;;;;;10560905;28;20039;-52
2021/11/20 11:02:09;;;;;;;13.40;4.90;;;18.50;71.50;;;;;;10581555;28;20027;-49
2021/11/20 11:07:26;;;;;;;15.68;4.72;;;18.40;71.70;;;;;;10559515;28;20027;-53
2021/11/20 11:12:54;;;;;;;14.43;5.03;;;18.40;72.20;;;;;;10559125;28;20028;-53
2021/11/20 11:18:03;;;;;;;13.20;5.53;;;18.40;72.30;;;;;;10561474;28;20035;-52
2021/11/20 11:23:26;;;;;;;11.82;6.00;;;18.40;72.50;;;;;;10578099;28;20522;-52
2021/11/20 11:28:54;;;;;;;17.38;5.57;;;18.50;73.30;;;;;;10564269;28;20269;-51
2021/11/20 11:34:27;;;;;;;12.40;5.30;;;18.50;75.30;;;;;;10565265;28;20046;-54
2021/11/20 11:39:59;;;;;;;12.32;5.28;;;18.50;74.80;;;;;;10582128;28;20475;-55
2021/11/20 11:45:45;;;;;;;15.15;5.40;;;18.50;75.40;;;;;;10582581;28;20028;-51
2021/11/20 11:51:11;;;;;;;11.02;5.65;;;18.40;75.60;;;;;;10567075;28;20053;-52
2021/11/20 11:56:25;;;;;;;15.88;6.00;;;18.40;75.20;;;;;;10581812;28;20066;-52
2021/11/20 12:01:52;;;;;;;13.32;5.97;;;18.30;74.60;;;;;;10563334;28;20020;-55
2021/11/20 12:07:18;;;;;;;14.98;6.50;;;18.30;74.70;;;;;;10581873;28;20220;-53
2021/11/20 12:12:56;;;;;;;12.35;5.38;;;18.20;74.80;;;;;;10564318;28;20024;-56
2021/11/20 12:18:28;;;;;;;16.30;6.28;;;18.20;74.20;;;;;;10563893;28;20023;-56
2021/11/20 12:24:06;;;;;;;24.20;7.50;;;18.20;74.50;;;;;;10564201;28;20523;-56
2021/11/20 12:29:55;;;;;;;14.63;6.68;;;18.10;74.50;;;;;;10581005;28;20039;-55
2021/11/20 12:35:26;;;;;;;14.00;6.70;;;18.00;73.80;;;;;;10580458;28;20093;-53
2021/11/20 12:40:47;;;;;;;14.68;6.50;;;18.00;74.00;;;;;;10580582;28;20081;-55
2021/11/20 12:46:10;;;;;;;13.10;6.28;;;17.90;74.00;;;;;;10580619;28;20082;-55
2021/11/20 12:51:48;;;;;;;13.75;6.70;;;18.00;73.90;;;;;;10579658;28;20061;-53
2021/11/20 12:56:49;;;;;;;9.32;5.72;;;18.20;73.40;;;;;;10580060;28;20047;-57
2021/11/20 13:02:00;;;;;;;8.25;5.30;;;18.20;73.10;;;;;;10545392;28;20032;-56
2021/11/20 13:07:03;;;;;;;15.02;5.65;;;18.30;72.70;;;;;;10559988;28;20452;-55
2021/11/20 13:12:34;;;;;;;13.05;5.88;;;18.30;72.30;;;;;;10561930;28;20404;-56
2021/11/20 13:17:53;;;;;;;13.57;6.22;;;18.30;72.30;;;;;;10564500;28;20054;-55
2021/11/20 13:23:07;;;;;;;6.77;4.47;;;18.30;72.40;;;;;;10579164;28;20085;-56
2021/11/20 13:28:08;;;;;;;9.80;5.68;;;18.40;72.10;;;;;;10579593;28;20387;-55
2021/11/20 13:33:10;;;;;;;9.15;5.63;;;18.30;72.10;;;;;;10579169;28;20044;-55
2021/11/20 13:38:17;;;;;;;8.43;5.05;;;18.30;72.00;;;;;;10579327;28;20016;-55
2021/11/20 13:43:19;;;;;;;12.45;5.63;;;18.40;71.70;;;;;;10579212;28;20057;-55
2021/11/20 13:48:26;;;;;;;7.07;4.80;;;18.40;71.60;;;;;;10579215;28;20430;-55
2021/11/20 13:53:33;;;;;;;7.82;5.15;;;18.40;71.80;;;;;;10561301;28;20082;-55
2021/11/20 13:58:38;;;;;;;9.05;4.78;;;18.30;71.90;;;;;;10579138;28;20404;-56
2021/11/20 14:03:55;;;;;;;7.72;5.15;;;18.20;72.10;;;;;;10581433;28;20036;-52
2021/11/20 14:08:59;;;;;;;6.32;5.00;;;18.10;72.20;;;;;;10568676;28;20024;-53
2021/11/20 14:14:00;;;;;;;10.93;6.30;;;18.10;72.30;;;;;;10552247;28;20030;-55
2021/11/20 14:19:03;;;;;;;13.73;6.68;;;18.30;71.80;;;;;;10585483;28;20024;-55
2021/11/20 14:24:10;;;;;;;13.15;5.03;;;18.40;71.40;;;;;;10566590;28;20107;-55
2021/11/20 14:29:11;;;;;;;9.10;5.25;;;18.50;71.10;;;;;;10576338;28;20157;-54
2021/11/20 14:34:15;;;;;;;12.77;6.22;;;18.60;71.10;;;;;;10533792;28;20440;-55
2021/11/20 14:39:32;;;;;;;16.25;5.55;;;18.60;71.20;;;;;;10548902;28;20016;-54
2021/11/20 14:44:34;;;;;;;14.57;6.32;;;18.50;71.40;;;;;;10531058;28;20024;-54
2021/11/20 14:49:37;;;;;;;12.60;6.03;;;18.50;71.70;;;;;;10556262;28;20027;-51
2021/11/20 14:54:38;;;;;;;13.18;5.53;;;18.40;72.00;;;;;;10562402;28;20077;-53
2021/11/20 14:59:43;;;;;;;13.48;6.38;;;18.30;72.30;;;;;;10539055;28;20107;-54
2021/11/20 15:04:45;;;;;;;12.73;6.38;;;18.30;72.60;;;;;;10582962;28;20032;-53
2021/11/20 15:09:45;;;;;;;11.45;6.57;;;18.20;72.80;;;;;;10565957;28;20028;-53
2021/11/20 15:14:46;;;;;;;16.45;6.20;;;18.10;73.00;;;;;;10564800;28;20028;-54
2021/11/20 15:19:47;;;;;;;20.70;6.25;;;18.20;73.20;;;;;;10565641;28;20031;-52
2021/11/20 15:24:48;;;;;;;13.48;6.32;;;18.20;73.10;;;;;;10579685;28;20414;-54
2021/11/20 15:29:50;;;;;;;16.13;5.82;;;18.10;73.10;;;;;;10564303;28;20353;-53
2021/11/20 15:34:50;;;;;;;14.90;6.35;;;18.10;73.10;;;;;;10581818;28;20043;-55
2021/11/20 15:39:52;;;;;;;12.48;5.93;;;18.20;73.10;;;;;;10582131;28;20027;-52
2021/11/20 15:44:53;;;;;;;12.25;6.43;;;18.30;72.70;;;;;;10564562;28;20031;-56
2021/11/20 15:49:54;;;;;;;13.43;6.65;;;18.30;72.70;;;;;;10563000;28;20421;-56
2021/11/20 15:54:54;;;;;;;16.20;6.40;;;18.20;72.90;;;;;;10580971;28;20558;-56
2021/11/20 15:59:55;;;;;;;17.02;6.55;;;18.20;73.00;;;;;;10562545;28;20483;-55
2021/11/20 16:04:56;;;;;;;10.93;5.82;;;18.20;73.20;;;;;;10578345;28;20495;-55
2021/11/20 16:09:56;;;;;;;14.35;7.10;;;18.10;73.20;;;;;;10563899;28;20535;-55
2021/11/20 16:14:57;;;;;;;17.80;6.32;;;18.20;73.20;;;;;;10581389;28;20130;-55
2021/11/20 16:19:59;;;;;;;15.98;6.50;;;18.20;73.30;;;;;;10559542;28;20068;-55
2021/11/20 16:24:59;;;;;;;23.58;6.20;;;18.20;73.10;;;;;;10567781;28;20028;-55
2021/11/20 16:30:02;;;;;;;15.65;5.55;;;18.10;73.20;;;;;;10550984;28;20031;-55
2021/11/20 16:35:04;;;;;;;18.50;6.80;;;18.20;73.10;;;;;;10567852;28;20495;-54
2021/11/20 16:40:07;;;;;;;15.50;6.70;;;18.20;72.90;;;;;;10568415;28;20058;-55
2021/11/20 16:45:13;;;;;;;12.27;7.10;;;18.30;72.10;;;;;;10557563;28;20054;-56
2021/11/20 16:50:18;;;;;;;18.38;8.05;;;18.40;71.20;;;;;;10565025;28;20115;-55
2021/11/20 16:55:19;;;;;;;15.75;8.43;;;18.40;73.50;;;;;;10554677;28;20028;-55
2021/11/20 17:00:20;;;;;;;16.40;7.82;;;18.60;72.60;;;;;;10561047;28;20036;-50
2021/11/20 17:05:21;;;;;;;12.38;7.00;;;18.70;72.80;;;;;;10557065;28;20027;-53
2021/11/20 17:10:22;;;;;;;14.32;8.18;;;18.70;72.60;;;;;;10545177;28;20032;-55
2021/11/20 17:15:23;;;;;;;15.57;7.75;;;18.70;72.50;;;;;;10557861;28;20383;-55
2021/11/20 17:20:24;;;;;;;17.63;8.20;;;18.70;72.80;;;;;;10575914;28;20030;-55
2021/11/20 17:25:25;;;;;;;16.90;7.65;;;18.60;72.60;;;;;;10523251;28;20024;-55
2021/11/20 17:30:26;;;;;;;13.48;6.60;;;18.50;72.60;;;;;;10553629;28;20099;-55
2021/11/20 17:35:27;;;;;;;13.40;7.72;;;18.40;72.70;;;;;;10575032;28;20040;-54
2021/11/20 17:40:27;;;;;;;17.27;7.38;;;18.40;72.80;;;;;;10585078;28;20019;-54
2021/11/20 17:45:28;;;;;;;13.40;7.82;;;18.30;72.90;;;;;;10587269;28;20024;-55
2021/11/20 17:50:30;;;;;;;16.17;7.30;;;18.30;73.20;;;;;;10587381;28;20027;-52
2021/11/20 17:55:31;;;;;;;10.68;6.88;;;18.20;73.20;;;;;;10586888;28;20038;-54
2021/11/20 18:00:37;;;;;;;16.52;7.65;;;18.20;73.30;;;;;;10568848;28;20034;-54
2021/11/20 18:05:38;;;;;;;10.90;7.18;;;18.10;73.30;;;;;;10586676;28;20024;-55
2021/11/20 18:10:40;;;;;;;10.98;6.60;;;18.10;73.30;;;;;;10586316;28;20387;-54
2021/11/20 18:15:41;;;;;;;17.60;7.05;;;18.10;73.20;;;;;;10568220;28;20052;-55
2021/11/20 18:20:44;;;;;;;13.40;6.40;;;18.10;73.00;;;;;;10585968;28;20133;-55
2021/11/20 18:25:47;;;;;;;12.30;6.15;;;18.10;72.90;;;;;;10583216;28;20028;-58
2021/11/20 18:30:47;;;;;;;11.52;6.05;;;18.10;72.80;;;;;;10553995;28;20039;-51
2021/11/20 18:35:48;;;;;;;13.00;6.68;;;18.10;72.70;;;;;;10529907;28;20054;-56
2021/11/20 18:40:51;;;;;;;10.45;5.88;;;18.20;72.40;;;;;;10522970;28;20057;-55
2021/11/20 18:45:53;;;;;;;11.10;6.60;;;18.30;72.20;;;;;;10505742;28;20115;-55
2021/11/20 18:50:56;;;;;;;6.38;5.45;;;18.30;72.20;;;;;;10512519;28;20051;-55
2021/11/20 18:55:56;;;;;;;9.38;5.72;;;18.30;72.20;;;;;;10505451;28;20140;-53
2021/11/20 19:00:57;;;;;;;11.40;6.10;;;18.30;72.10;;;;;;10512424;28;20086;-54
2021/11/20 19:05:58;;;;;;;9.73;5.68;;;18.30;72.00;;;;;;10506522;28;20555;-55
2021/11/20 19:10:59;;;;;;;11.52;6.63;;;18.30;72.10;;;;;;10504708;28;20032;-55
2021/11/20 19:16:01;;;;;;;9.23;6.07;;;18.30;72.20;;;;;;10528471;28;20551;-55
2021/11/20 19:21:03;;;;;;;10.23;6.25;;;18.20;72.40;;;;;;10540380;28;20028;-56
2021/11/20 19:26:09;;;;;;;12.98;6.30;;;18.10;72.30;;;;;;10525644;28;20031;-56
2021/11/20 19:31:10;;;;;;;10.75;5.72;;;18.20;72.20;;;;;;10544570;28;20492;-54
2021/11/20 19:36:11;;;;;;;7.55;5.25;;;18.30;71.80;;;;;;10571965;28;20039;-55
2021/11/20 19:41:15;;;;;;;13.20;5.30;;;18.40;71.80;;;;;;10581780;28;20024;-55
2021/11/20 19:46:16;;;;;;;8.30;5.50;;;18.30;71.80;;;;;;10582576;28;20023;-55
2021/11/20 19:51:17;;;;;;;8.13;5.78;;;18.20;71.90;;;;;;10562047;28;20027;-56
2021/11/20 19:56:17;;;;;;;8.15;5.97;;;18.20;72.10;;;;;;10563975;28;20036;-56
2021/11/20 20:01:19;;;;;;;8.35;5.22;;;18.20;72.10;;;;;;10562569;28;20035;-56
2021/11/20 20:06:20;;;;;;;6.55;5.13;;;18.20;72.10;;;;;;10560149;28;20030;-55
2021/11/20 20:11:21;;;;;;;6.55;5.55;;;18.20;71.90;;;;;;10580443;28;20384;-55
2021/11/20 20:16:24;;;;;;;7.22;5.80;;;18.10;71.90;;;;;;10562330;28;20111;-55
2021/11/20 20:21:26;;;;;;;8.18;5.35;;;18.10;71.90;;;;;;10581050;28;20055;-54
2021/11/20 20:26:27;;;;;;;6.80;5.18;;;18.10;72.10;;;;;;10545875;28;20361;-55
2021/11/20 20:31:30;;;;;;;8.38;5.25;;;18.00;72.20;;;;;;10562713;28;20142;-55
2021/11/20 20:36:36;;;;;;;8.27;5.18;;;17.90;72.30;;;;;;10556682;28;20044;-56
2021/11/20 20:41:37;;;;;;;7.55;4.93;;;17.90;72.40;;;;;;10560225;28;20032;-55
2021/11/20 20:46:38;;;;;;;12.32;4.38;;;17.80;72.60;;;;;;10574992;28;20024;-54
2021/11/20 20:51:39;;;;;;;6.57;5.07;;;17.80;72.60;;;;;;10557529;28;20028;-54
2021/11/20 20:56:40;;;;;;;6.25;4.30;;;17.70;72.70;;;;;;10578029;28;20039;-54
2021/11/20 21:01:41;;;;;;;7.72;5.35;;;17.70;72.70;;;;;;10574238;28;20595;-54
2021/11/20 21:06:43;;;;;;;5.90;4.70;;;17.70;72.70;;;;;;10555901;28;20098;-55
2021/11/20 21:11:44;;;;;;;10.05;4.93;;;17.70;72.80;;;;;;10575347;28;20035;-54
2021/11/20 21:16:46;;;;;;;6.93;5.25;;;17.60;72.70;;;;;;10584897;28;20383;-55
2021/11/20 21:22:09;;;;;;;7.03;4.85;;;17.60;72.80;;;;;;10568241;28;20125;-56
2021/11/20 21:27:12;;;;;;;7.60;5.20;;;17.60;72.80;;;;;;10586150;28;20032;-55
2021/11/20 21:32:16;;;;;;;6.82;4.53;;;17.50;72.80;;;;;;10554359;28;20028;-55
2021/11/20 21:37:19;;;;;;;6.32;4.15;;;17.60;72.90;;;;;;10585887;28;20043;-56
2021/11/20 21:42:21;;;;;;;6.20;4.13;;;17.50;72.90;;;;;;10584206;28;20050;-56
2021/11/20 21:47:23;;;;;;;5.82;4.45;;;17.50;72.90;;;;;;10585620;28;20020;-55
2021/11/20 21:52:25;;;;;;;5.32;4.20;;;17.50;72.90;;;;;;10567247;28;20028;-55
2021/11/20 21:57:26;;;;;;;6.72;4.53;;;17.40;72.90;;;;;;10586017;28;20027;-56
2021/11/20 22:02:26;;;;;;;5.68;4.82;;;17.40;73.00;;;;;;10566795;28;20036;-55
2021/11/20 22:07:27;;;;;;;6.47;5.03;;;17.40;73.00;;;;;;10566098;28;20509;-49
2021/11/20 22:12:28;;;;;;;8.55;4.70;;;17.40;72.90;;;;;;10566235;28;20398;-47
2021/11/20 22:17:29;;;;;;;6.97;4.97;;;17.40;72.90;;;;;;10566002;28;20035;-48
2021/11/20 22:22:29;;;;;;;9.32;4.90;;;17.40;72.90;;;;;;10583836;28;20391;-49
2021/11/20 22:27:30;;;;;;;5.22;3.92;;;17.40;72.90;;;;;;10583593;28;20534;-48
2021/11/20 22:32:31;;;;;;;6.55;4.50;;;17.40;72.90;;;;;;10551431;28;20032;-50
2021/11/20 22:37:31;;;;;;;6.82;4.75;;;17.50;72.60;;;;;;10548164;28;20031;-50
2021/11/20 22:42:32;;;;;;;6.00;4.40;;;17.60;72.30;;;;;;10584033;28;20464;-49
2021/11/20 22:47:35;;;;;;;6.22;4.75;;;17.60;72.10;;;;;;10582918;28;20434;-48
2021/11/20 22:52:36;;;;;;;6.03;4.53;;;17.60;72.20;;;;;;10547784;28;20088;-51
2021/11/20 22:57:37;;;;;;;6.18;4.38;;;17.60;72.20;;;;;;10564307;28;20453;-48
2021/11/20 23:02:37;;;;;;;5.28;4.18;;;17.60;71.90;;;;;;10582173;28;20027;-49
2021/11/20 23:07:38;;;;;;;5.50;4.57;;;17.70;71.90;;;;;;10582025;28;20427;-48
2021/11/20 23:12:39;;;;;;;6.53;4.90;;;17.60;71.90;;;;;;10581769;28;20475;-48
2021/11/20 23:17:39;;;;;;;5.60;4.25;;;17.60;72.00;;;;;;10581732;28;20035;-52
2021/11/20 23:22:40;;;;;;;5.07;4.30;;;17.60;72.10;;;;;;10563392;28;20028;-51
2021/11/20 23:27:42;;;;;;;5.72;3.95;;;17.50;72.10;;;;;;10581256;28;20027;-47
2021/11/20 23:32:43;;;;;;;4.68;3.83;;;17.50;72.30;;;;;;10548991;28;20044;-51
2021/11/20 23:37:44;;;;;;;5.45;4.15;;;17.50;72.30;;;;;;10562518;28;20027;-49
2021/11/20 23:42:46;;;;;;;6.28;4.70;;;17.60;72.00;;;;;;10580914;28;20024;-48
2021/11/20 23:47:47;;;;;;;5.22;4.47;;;17.60;71.70;;;;;;10580630;28;20541;-47
2021/11/20 23:52:48;;;;;;;4.90;3.83;;;17.70;71.60;;;;;;10580102;28;20024;-52
2021/11/20 23:57:49;;;;;;;5.63;4.47;;;17.70;71.80;;;;;;10562094;28;20032;-50
